createdAt,value
2022-10-14T00:02:46.424Z,100756.41
2022-10-14T00:05:33.565Z,100754.09
2022-10-14T00:08:21.281Z,100745.47
2022-10-14T00:11:09.927Z,100750.72
2022-10-14T00:13:59.903Z,100748.41
2022-10-14T00:16:49.895Z,100744.84
2022-10-14T00:19:38.897Z,100745.44
2022-10-14T00:22:26.751Z,100748.38
2022-10-14T00:25:14.322Z,100742.50
2022-10-14T00:28:03.771Z,100745.47
2022-10-14T00:30:55.555Z,100741.66
2022-10-14T00:33:43.178Z,100739.59
2022-10-14T00:36:33.068Z,100740.44
2022-10-14T00:39:21.000Z,100744.84
2022-10-14T00:42:13.846Z,100742.94
2022-10-14T00:45:15.888Z,100751.34
2022-10-14T00:48:03.319Z,100734.78
2022-10-14T00:50:54.599Z,100734.56
2022-10-14T00:53:45.012Z,100737.13
2022-10-14T00:56:32.862Z,100736.28
2022-10-14T00:59:20.281Z,100737.09
2022-10-14T01:02:07.818Z,100733.53
2022-10-14T01:04:55.582Z,100739.19
2022-10-14T01:07:50.902Z,100736.03
2022-10-14T01:10:45.125Z,100736.28
2022-10-14T01:13:35.093Z,100732.06
2022-10-14T01:16:27.912Z,100729.47
2022-10-14T01:19:50.243Z,100729.09
2022-10-14T01:22:43.683Z,100730.81
2022-10-14T01:25:34.830Z,100727.41
2022-10-14T01:28:32.086Z,100721.09
2022-10-14T01:31:23.037Z,100712.22
2022-10-14T01:34:14.483Z,100718.81
2022-10-14T01:37:06.524Z,100723.41
2022-10-14T01:39:57.314Z,100722.75
2022-10-14T01:42:46.728Z,100723.56
2022-10-14T01:45:37.682Z,100713.22
2022-10-14T01:48:33.692Z,100718.72
2022-10-14T01:51:28.351Z,100720.84
2022-10-14T01:54:19.714Z,100716.44
2022-10-14T01:57:12.010Z,100703.84
2022-10-14T02:00:00.785Z,100710.16
2022-10-14T02:02:48.284Z,100715.22
2022-10-14T02:05:44.318Z,100720.69
2022-10-14T02:08:50.170Z,100722.75
2022-10-14T02:11:47.856Z,100705.53
2022-10-14T02:14:44.719Z,100700.72
2022-10-14T02:17:36.791Z,100700.78
2022-10-14T02:20:30.285Z,100693.41
2022-10-14T02:23:23.744Z,100691.72
2022-10-14T02:26:11.762Z,100695.44
2022-10-14T02:29:00.948Z,100694.38
2022-10-14T02:31:50.790Z,100693.75
2022-10-14T02:34:40.286Z,100687.84
2022-10-14T02:37:31.885Z,100698.38
2022-10-14T02:40:26.047Z,100688.66
2022-10-14T02:43:15.143Z,100685.72
2022-10-14T02:46:04.408Z,100688.72
2022-10-14T02:48:52.394Z,100677.97
2022-10-14T02:51:40.594Z,100679.22
2022-10-14T02:54:31.557Z,100680.03
2022-10-14T02:57:20.299Z,100687.41
2022-10-14T03:00:10.311Z,100677.75
2022-10-14T03:02:57.747Z,100682.56
2022-10-14T03:05:47.446Z,100673.91
2022-10-14T03:08:36.520Z,100677.25
2022-10-14T03:11:26.506Z,100680.63
2022-10-14T03:14:20.919Z,100669.69
2022-10-14T03:17:09.324Z,100672.19
2022-10-14T03:19:56.675Z,100667.13
2022-10-14T03:22:46.100Z,100657.09
2022-10-14T03:25:33.661Z,100666.13
2022-10-14T03:28:28.903Z,100665.72
2022-10-14T03:31:27.005Z,100669.94
2022-10-14T03:34:49.905Z,100667.59
2022-10-14T03:37:43.087Z,100668.66
2022-10-14T03:40:30.796Z,100668.00
2022-10-14T03:43:20.078Z,100669.50
2022-10-14T03:46:14.724Z,100658.53
2022-10-14T03:49:04.005Z,100666.31
2022-10-14T03:51:52.055Z,100661.47
2022-10-14T03:54:44.530Z,100661.31
2022-10-14T03:57:35.609Z,100658.97
2022-10-14T04:00:25.801Z,100658.59
2022-10-14T04:03:25.765Z,100660.28
2022-10-14T04:06:15.770Z,100660.06
2022-10-14T04:09:04.414Z,100662.81
2022-10-14T04:11:58.313Z,100647.00
2022-10-14T04:15:02.812Z,100659.09
2022-10-14T04:17:58.528Z,100648.75
2022-10-14T04:20:46.278Z,100648.31
2022-10-14T04:23:37.021Z,100656.69
2022-10-14T04:26:32.728Z,100650.13
2022-10-14T04:29:20.230Z,100653.25
2022-10-14T04:32:15.260Z,100659.13
2022-10-14T04:35:02.801Z,100654.31
2022-10-14T04:37:51.143Z,100644.50
2022-10-14T04:40:45.945Z,100641.81
2022-10-14T04:43:33.355Z,100646.19
2022-10-14T04:46:32.884Z,100645.81
2022-10-14T04:49:21.326Z,100644.72
2022-10-14T04:52:27.075Z,100644.53
2022-10-14T04:55:22.894Z,100641.16
2022-10-14T04:58:12.839Z,100644.69
2022-10-14T05:01:03.190Z,100644.47
2022-10-14T05:03:55.025Z,100646.56
2022-10-14T05:06:42.733Z,100644.25
2022-10-14T05:09:33.455Z,100639.16
2022-10-14T05:12:21.984Z,100632.81
2022-10-14T05:15:16.289Z,100636.38
2022-10-14T05:18:19.985Z,100624.59
2022-10-14T05:21:19.609Z,100622.97
2022-10-14T05:24:17.515Z,100629.88
2022-10-14T05:27:06.758Z,100629.03
2022-10-14T05:29:55.621Z,100635.13
2022-10-14T05:32:44.862Z,100630.25
2022-10-14T05:35:56.957Z,100623.31
2022-10-14T05:38:40.570Z,100623.72
2022-10-14T05:41:28.650Z,100628.53
2022-10-14T05:44:16.170Z,100631.69
2022-10-14T05:47:04.024Z,100640.75
2022-10-14T05:49:53.001Z,100635.06
2022-10-14T05:52:40.922Z,100640.53
2022-10-14T05:55:36.261Z,100645.16
2022-10-14T05:58:23.924Z,100633.16
2022-10-14T06:01:13.392Z,100632.94
2022-10-14T06:04:02.591Z,100639.72
2022-10-14T06:06:51.183Z,100622.91
2022-10-14T06:09:40.109Z,100629.66
2022-10-14T06:12:27.918Z,100634.34
2022-10-14T06:15:16.079Z,100631.38
2022-10-14T06:18:05.199Z,100634.94
2022-10-14T06:20:54.278Z,100629.88
2022-10-14T06:23:43.460Z,100625.91
2022-10-14T06:26:30.691Z,100626.84
2022-10-14T06:29:18.675Z,100630.38
2022-10-14T06:32:06.730Z,100631.38
2022-10-14T06:34:53.999Z,100629.69
2022-10-14T06:37:41.825Z,100628.03
2022-10-14T06:40:30.585Z,100621.13
2022-10-14T06:43:17.884Z,100617.78
2022-10-14T06:46:06.038Z,100611.28
2022-10-14T06:48:53.986Z,100607.72
2022-10-14T06:51:41.411Z,100607.72
2022-10-14T06:54:28.814Z,100603.72
2022-10-14T06:57:17.423Z,100600.53
2022-10-14T07:00:06.001Z,100593.41
2022-10-14T07:02:55.872Z,100595.09
2022-10-14T07:05:43.504Z,100606.06
2022-10-14T07:08:30.744Z,100605.00
2022-10-14T07:11:18.416Z,100598.25
2022-10-14T07:14:07.119Z,100600.78
2022-10-14T07:16:54.808Z,100603.31
2022-10-14T07:19:41.779Z,100599.53
2022-10-14T07:22:29.375Z,100603.75
2022-10-14T07:25:16.782Z,100598.94
2022-10-14T07:28:04.439Z,100599.13
2022-10-14T07:30:59.757Z,100604.59
2022-10-14T07:33:46.867Z,100597.44
2022-10-14T07:36:34.530Z,100599.09
2022-10-14T07:39:21.768Z,100597.84
2022-10-14T07:42:09.438Z,100594.72
2022-10-14T07:44:57.810Z,100599.53
2022-10-14T07:47:49.334Z,100602.09
2022-10-14T07:50:36.851Z,100606.06
2022-10-14T07:53:24.918Z,100603.75
2022-10-14T07:56:12.697Z,100592.16
2022-10-14T07:59:00.304Z,100591.53
2022-10-14T08:01:48.470Z,100590.63
2022-10-14T08:04:36.894Z,100590.66
2022-10-14T08:07:25.319Z,100582.59
2022-10-14T08:10:13.335Z,100568.28
2022-10-14T08:13:01.135Z,100562.81
2022-10-14T08:15:48.644Z,100563.47
2022-10-14T08:18:36.360Z,100562.59
2022-10-14T08:21:25.855Z,100557.28
2022-10-14T08:24:13.463Z,100560.63
2022-10-14T08:27:01.138Z,100553.38
2022-10-14T08:29:48.646Z,100548.50
2022-10-14T08:32:35.876Z,100552.00
2022-10-14T08:35:23.584Z,100554.19
2022-10-14T08:38:13.161Z,100554.59
2022-10-14T08:41:08.632Z,100561.56
2022-10-14T08:44:09.427Z,100555.88
2022-10-14T08:46:59.912Z,100553.59
2022-10-14T08:49:58.600Z,100555.63
2022-10-14T08:52:52.281Z,100563.19
2022-10-14T08:55:43.508Z,100561.69
2022-10-14T08:58:36.094Z,100565.81
2022-10-14T09:01:27.581Z,100571.38
2022-10-14T09:04:16.974Z,100554.34
2022-10-14T09:07:05.466Z,100548.94
2022-10-14T09:09:55.691Z,100560.25
2022-10-14T09:12:44.655Z,100550.09
2022-10-14T09:15:36.005Z,100552.00
2022-10-14T09:18:29.152Z,100547.22
2022-10-14T09:24:45.533Z,100540.19
2022-10-14T09:27:34.319Z,100538.88
2022-10-14T09:30:23.455Z,100535.38
2022-10-14T09:33:18.312Z,100531.72
2022-10-14T09:36:06.912Z,100519.34
2022-10-14T09:38:56.294Z,100524.88
2022-10-14T09:41:46.540Z,100515.31
2022-10-14T09:44:33.868Z,100513.22
2022-10-14T09:47:22.979Z,100513.59
2022-10-14T09:50:15.542Z,100512.16
2022-10-14T09:53:10.679Z,100502.72
2022-10-14T09:56:00.176Z,100499.31
2022-10-14T09:58:51.100Z,100498.97
2022-10-14T10:01:41.842Z,100495.84
2022-10-14T10:04:42.905Z,100489.22
2022-10-14T10:07:33.062Z,100483.81
2022-10-14T10:10:22.907Z,100483.47
2022-10-14T10:13:23.113Z,100462.41
2022-10-14T10:16:21.385Z,100476.19
2022-10-14T10:19:28.193Z,100487.34
2022-10-14T10:22:27.502Z,100477.06
2022-10-14T10:25:26.791Z,100473.91
2022-10-14T10:28:20.465Z,100480.66
2022-10-14T10:31:21.380Z,100469.41
2022-10-14T10:34:29.624Z,100473.72
2022-10-14T10:37:28.106Z,100469.56
2022-10-14T10:40:35.334Z,100453.75
2022-10-14T10:43:51.530Z,100454.75
2022-10-14T10:47:02.847Z,100451.78
2022-10-14T10:50:05.240Z,100452.72
2022-10-14T10:53:18.923Z,100443.88
2022-10-14T10:56:14.965Z,100435.84
2022-10-14T10:59:21.396Z,100432.91
2022-10-14T11:02:38.434Z,100431.78
2022-10-14T11:05:42.816Z,100425.31
2022-10-14T11:09:10.100Z,100416.38
2022-10-14T11:12:07.906Z,100414.13
2022-10-14T11:15:24.950Z,100411.38
2022-10-14T11:18:20.752Z,100409.69
2022-10-14T11:21:22.096Z,100403.88
2022-10-14T11:27:14.335Z,100408.75
2022-10-14T11:30:15.418Z,100401.19
2022-10-14T11:33:18.511Z,100396.72
2022-10-14T11:36:20.625Z,100384.72
2022-10-14T11:39:28.672Z,100383.28
2022-10-14T11:42:45.646Z,100381.91
2022-10-14T11:45:47.564Z,100374.97
2022-10-14T11:48:40.000Z,100379.84
2022-10-14T11:51:36.277Z,100374.13
2022-10-14T11:54:32.393Z,100376.03
2022-10-14T11:57:26.607Z,100362.94
2022-10-14T12:00:35.067Z,100366.66
2022-10-14T12:03:52.801Z,100368.47
2022-10-14T12:06:46.055Z,100353.81
2022-10-14T12:09:40.256Z,100353.00
2022-10-14T12:12:30.566Z,100350.47
2022-10-14T12:15:21.722Z,100342.69
2022-10-14T12:18:10.262Z,100333.13
2022-10-14T12:21:04.568Z,100327.66
2022-10-14T12:23:58.572Z,100327.44
2022-10-14T12:26:55.080Z,100327.50
2022-10-14T12:29:44.855Z,100315.72
2022-10-14T12:32:33.287Z,100314.47
2022-10-14T12:35:51.815Z,100314.28
2022-10-14T12:38:39.051Z,100307.16
2022-10-14T12:41:43.794Z,100310.19
2022-10-14T12:44:37.829Z,100299.84
2022-10-14T12:47:29.238Z,100294.81
2022-10-14T12:50:29.856Z,100296.38
2022-10-14T12:53:23.638Z,100289.13
2022-10-14T12:56:11.515Z,100289.28
2022-10-14T12:59:02.572Z,100284.00
2022-10-14T13:01:58.449Z,100280.50
2022-10-14T13:04:50.310Z,100271.53
2022-10-14T13:07:45.684Z,100273.81
2022-10-14T13:11:10.182Z,100266.78
2022-10-14T13:14:02.578Z,100265.78
2022-10-14T13:17:02.667Z,100264.13
2022-10-14T13:19:50.013Z,100266.19
2022-10-14T13:22:46.598Z,100265.53
2022-10-14T13:25:34.547Z,100263.25
2022-10-14T13:28:29.820Z,100244.22
2022-10-14T13:31:24.502Z,100248.59
2022-10-14T13:34:33.906Z,100247.34
2022-10-14T13:37:32.135Z,100241.19
2022-10-14T13:40:27.375Z,100251.00
2022-10-14T13:43:20.175Z,100250.84
2022-10-14T13:46:15.079Z,100243.22
2022-10-14T13:49:06.745Z,100232.69
2022-10-14T13:52:00.798Z,100225.03
2022-10-14T13:54:48.275Z,100226.69
2022-10-14T13:58:00.195Z,100214.03
2022-10-14T14:00:47.245Z,100213.47
2022-10-14T14:03:37.933Z,100209.16
2022-10-14T14:06:35.780Z,100205.78
2022-10-14T14:09:35.915Z,100198.00
2022-10-14T14:12:23.885Z,100199.59
2022-10-14T14:15:20.353Z,100194.16
2022-10-14T14:18:33.879Z,100183.00
2022-10-14T14:21:31.122Z,100184.72
2022-10-14T14:24:22.909Z,100173.03
2022-10-14T14:27:15.345Z,100176.88
2022-10-14T14:30:08.479Z,100176.88
2022-10-14T14:32:57.260Z,100169.50
2022-10-14T14:35:55.342Z,100155.63
2022-10-14T14:38:55.907Z,100155.88
2022-10-14T14:41:51.788Z,100151.47
2022-10-14T14:44:43.584Z,100149.97
2022-10-14T14:47:31.976Z,100153.72
2022-10-14T14:50:31.783Z,100154.81
2022-10-14T14:53:22.167Z,100152.72
2022-10-14T14:56:14.496Z,100154.81
2022-10-14T14:59:09.187Z,100147.78
2022-10-14T15:05:01.712Z,100149.84
2022-10-14T15:07:50.672Z,100149.75
2022-10-14T15:10:48.221Z,100151.72
2022-10-14T15:13:50.775Z,100150.16
2022-10-14T15:16:43.045Z,100148.19
2022-10-14T15:19:38.159Z,100148.69
2022-10-14T15:22:37.179Z,100147.69
2022-10-14T15:25:25.998Z,100145.25
2022-10-14T15:28:30.271Z,100140.75
2022-10-14T15:31:20.345Z,100148.22
2022-10-14T15:34:22.057Z,100149.91
2022-10-14T15:37:14.152Z,100154.34
2022-10-14T15:40:04.760Z,100156.03
2022-10-14T15:42:52.473Z,100151.03
2022-10-14T15:45:40.389Z,100146.16
2022-10-14T15:48:27.813Z,100150.25
2022-10-14T15:51:18.025Z,100143.78
2022-10-14T15:54:06.761Z,100151.72
2022-10-14T15:59:45.185Z,100140.41
2022-10-14T16:02:35.383Z,100143.94
2022-10-14T16:05:23.503Z,100150.81
2022-10-14T16:08:13.720Z,100138.00
2022-10-14T16:11:04.380Z,100140.19
2022-10-14T16:13:51.848Z,100134.41
2022-10-14T16:16:43.249Z,100140.19
2022-10-14T16:19:30.565Z,100130.34
2022-10-14T16:22:17.803Z,100131.28
2022-10-14T16:25:06.624Z,100132.94
2022-10-14T16:27:54.943Z,100132.25
2022-10-14T16:30:49.517Z,100129.25
2022-10-14T16:33:38.337Z,100120.75
2022-10-14T16:36:30.770Z,100113.97
2022-10-14T16:39:19.884Z,100103.91
2022-10-14T16:42:09.270Z,100103.81
2022-10-14T16:44:58.112Z,100107.50
2022-10-14T16:47:45.998Z,100101.19
2022-10-14T16:50:34.047Z,100108.38
2022-10-14T16:53:40.248Z,100097.38
2022-10-14T16:56:45.132Z,100099.97
2022-10-14T16:59:33.016Z,100097.09
2022-10-14T17:02:22.548Z,100101.38
2022-10-14T17:05:11.258Z,100094.56
2022-10-14T17:07:58.926Z,100094.22
2022-10-14T17:10:46.608Z,100097.19
2022-10-14T17:13:34.166Z,100093.16
2022-10-14T17:16:22.109Z,100086.78
2022-10-14T17:19:12.501Z,100078.91
2022-10-14T17:22:02.279Z,100093.81
2022-10-14T17:24:50.763Z,100082.13
2022-10-14T17:27:38.399Z,100073.16
2022-10-14T17:30:25.898Z,100080.25
2022-10-14T17:33:12.907Z,100081.41
2022-10-14T17:36:02.225Z,100066.72
2022-10-14T17:38:52.571Z,100074.81
2022-10-14T17:41:40.624Z,100079.84
2022-10-14T17:44:28.913Z,100071.56
2022-10-14T17:47:17.525Z,100078.84
2022-10-14T17:50:07.214Z,100075.19
2022-10-14T17:52:58.966Z,100077.31
2022-10-14T17:55:46.535Z,100064.09
2022-10-14T17:58:34.345Z,100061.59
2022-10-14T18:01:36.680Z,100075.66
2022-10-14T18:04:29.697Z,100067.50
2022-10-14T18:07:18.817Z,100072.78
2022-10-14T18:10:07.599Z,100063.47
2022-10-14T18:12:58.139Z,100068.13
2022-10-14T18:15:45.231Z,100066.78
2022-10-14T18:18:33.093Z,100080.50
2022-10-14T18:21:20.939Z,100062.72
2022-10-14T18:24:08.825Z,100073.16
2022-10-14T18:26:57.649Z,100061.88
2022-10-14T18:29:45.105Z,100059.63
2022-10-14T18:32:33.163Z,100057.16
2022-10-14T18:35:20.612Z,100060.00
2022-10-14T18:38:08.070Z,100045.59
2022-10-14T18:41:00.699Z,100048.28
2022-10-14T18:43:50.025Z,100038.41
2022-10-14T18:46:39.304Z,100044.94
2022-10-14T18:49:27.675Z,100036.94
2022-10-14T18:52:15.089Z,100048.72
2022-10-14T18:55:02.949Z,100042.28
2022-10-14T18:57:50.323Z,100048.72
2022-10-14T19:00:39.285Z,100047.28
2022-10-14T19:03:26.695Z,100042.28
2022-10-14T19:06:15.659Z,100045.84
2022-10-14T19:09:04.227Z,100037.84
2022-10-14T19:11:52.644Z,100035.84
2022-10-14T19:14:40.144Z,100040.78
2022-10-14T19:17:29.226Z,100046.47
2022-10-14T19:20:17.025Z,100039.59
2022-10-14T19:23:05.380Z,100047.41
2022-10-14T19:25:53.077Z,100033.56
2022-10-14T19:28:40.844Z,100037.06
2022-10-14T19:31:30.521Z,100033.03
2022-10-14T19:34:18.806Z,100021.19
2022-10-14T19:37:06.483Z,100035.84
2022-10-14T19:39:54.078Z,100021.16
2022-10-14T19:42:41.967Z,100023.44
2022-10-14T19:45:29.138Z,100024.75
2022-10-14T19:48:17.951Z,100025.75
2022-10-14T19:51:10.211Z,100014.22
2022-10-14T19:53:59.438Z,100007.66
2022-10-14T19:56:46.940Z,100001.75
2022-10-14T19:59:34.902Z,99999.34
2022-10-14T20:02:22.480Z,100004.97
2022-10-14T20:05:10.467Z,99992.56
2022-10-14T20:08:01.855Z,100007.94
2022-10-14T20:10:49.638Z,100002.59
2022-10-14T20:13:38.045Z,100010.94
2022-10-14T20:16:26.372Z,100007.44
2022-10-14T20:19:13.852Z,100007.44
2022-10-14T20:22:01.673Z,100012.56
2022-10-14T20:24:51.000Z,100004.22
2022-10-14T20:27:39.238Z,100004.94
2022-10-14T20:30:29.220Z,99989.41
2022-10-14T20:33:16.854Z,99986.31
2022-10-14T20:36:06.853Z,99981.03
2022-10-14T20:38:53.764Z,99984.25
2022-10-14T20:41:42.782Z,99991.28
2022-10-14T20:44:30.441Z,99991.78
2022-10-14T20:47:18.125Z,99997.38
2022-10-14T20:50:06.710Z,99995.00
2022-10-14T20:52:54.012Z,99994.16
2022-10-14T20:58:56.704Z,99988.13
2022-10-14T21:01:44.550Z,99981.78
2022-10-14T21:04:33.071Z,99983.94
2022-10-14T21:07:22.126Z,99979.38
2022-10-14T21:10:10.558Z,99986.78
2022-10-14T21:12:57.888Z,99989.59
2022-10-14T21:15:46.432Z,99992.34
2022-10-14T21:18:34.339Z,100001.88
2022-10-14T21:21:24.811Z,100004.00
2022-10-14T21:24:14.533Z,100002.25
2022-10-14T21:27:01.962Z,100000.56
2022-10-14T21:29:50.848Z,99988.06
2022-10-14T21:32:40.233Z,99974.81
2022-10-14T21:35:28.023Z,99970.53
2022-10-14T21:38:15.085Z,99980.75
2022-10-14T21:41:04.908Z,99988.69
2022-10-14T21:43:53.013Z,99989.16
2022-10-14T21:46:40.539Z,99988.63
2022-10-14T21:49:28.940Z,99985.94
2022-10-14T21:52:16.383Z,99976.22
2022-10-14T21:55:03.713Z,99981.56
2022-10-14T21:57:51.601Z,99969.97
2022-10-14T22:00:39.456Z,99979.28
2022-10-14T22:03:27.813Z,99978.44
2022-10-14T22:06:18.576Z,99978.91
2022-10-14T22:09:08.571Z,99986.91
2022-10-14T22:12:00.271Z,99980.78
2022-10-14T22:14:48.797Z,99988.56
2022-10-14T22:17:36.149Z,99987.97
2022-10-14T22:20:23.949Z,99987.34
2022-10-14T22:23:12.567Z,99994.03
2022-10-14T22:26:01.594Z,99989.19
2022-10-14T22:28:49.422Z,99994.03
2022-10-14T22:31:36.865Z,99995.28
2022-10-14T22:34:24.055Z,100000.50
2022-10-14T22:37:11.580Z,99984.78
2022-10-14T22:40:01.249Z,99985.50
2022-10-14T22:42:51.547Z,99984.16
2022-10-14T22:45:40.323Z,99982.78
2022-10-14T22:48:29.708Z,99976.84
2022-10-14T22:51:19.416Z,99982.41
2022-10-14T22:54:07.328Z,99984.44
2022-10-14T22:56:56.955Z,99985.16
2022-10-14T22:59:44.995Z,99982.19
2022-10-14T23:02:33.178Z,99983.69
2022-10-14T23:05:21.111Z,99981.22
2022-10-14T23:08:11.542Z,99982.03
2022-10-14T23:10:59.697Z,99982.03
2022-10-14T23:13:49.927Z,99979.06
2022-10-14T23:16:38.085Z,99973.47
2022-10-14T23:19:39.401Z,99975.34
2022-10-14T23:22:26.791Z,99970.78
2022-10-14T23:25:14.361Z,99970.03
2022-10-14T23:28:01.867Z,99963.56
2022-10-14T23:30:51.975Z,99978.78
2022-10-14T23:33:40.493Z,99965.16
2022-10-14T23:36:28.275Z,99967.28
2022-10-14T23:39:17.251Z,99966.66
2022-10-14T23:42:05.269Z,99976.16
2022-10-14T23:44:53.382Z,99973.75
2022-10-14T23:47:42.419Z,99970.44
2022-10-14T23:50:29.909Z,99965.41
2022-10-14T23:53:18.129Z,99972.66
2022-10-14T23:56:06.462Z,99970.19
2022-10-14T23:58:54.013Z,99967.72
